createdAt,value
2023-01-26T00:00:19.738Z,25.63
2023-01-26T00:02:49.083Z,25.42
2023-01-26T00:05:18.459Z,26.75
2023-01-26T00:07:47.912Z,24.92
2023-01-26T00:10:17.479Z,25.40
2023-01-26T00:12:46.771Z,22.85
2023-01-26T00:15:16.147Z,23.13
2023-01-26T00:17:47.341Z,23.38
2023-01-26T00:20:16.696Z,23.60
2023-01-26T00:22:45.965Z,23.52
2023-01-26T00:25:15.184Z,23.13
2023-01-26T00:27:44.441Z,26.15
2023-01-26T00:30:14.130Z,26.02
2023-01-26T00:32:48.207Z,23.00
2023-01-26T00:35:18.927Z,23.98
2023-01-26T00:37:48.214Z,23.25
2023-01-26T00:40:17.554Z,21.77
2023-01-26T00:42:46.745Z,20.88
2023-01-26T00:45:16.018Z,23.48
2023-01-26T00:47:47.446Z,22.90
2023-01-26T00:50:17.021Z,23.33
2023-01-26T00:52:46.352Z,21.48
2023-01-26T00:55:15.656Z,24.80
2023-01-26T00:57:44.888Z,24.33
2023-01-26T01:00:16.794Z,23.73
2023-01-26T01:02:47.072Z,25.50
2023-01-26T01:05:16.362Z,22.15
2023-01-26T01:07:45.613Z,23.77
2023-01-26T01:10:14.953Z,23.58
2023-01-26T01:12:44.293Z,21.83
2023-01-26T01:15:13.661Z,22.45
2023-01-26T01:17:42.986Z,22.13
2023-01-26T01:20:13.395Z,20.38
2023-01-26T01:22:44.169Z,24.48
2023-01-26T01:25:13.485Z,22.85
2023-01-26T01:27:42.862Z,20.98
2023-01-26T01:30:12.925Z,20.77
2023-01-26T01:32:43.201Z,24.20
2023-01-26T01:35:12.455Z,20.67
2023-01-26T01:37:41.764Z,20.10
2023-01-26T01:40:14.171Z,20.02
2023-01-26T01:45:37.967Z,20.90
2023-01-26T01:48:09.136Z,19.27
2023-01-26T01:50:42.664Z,21.25
2023-01-26T01:53:14.587Z,18.23
2023-01-26T01:55:44.338Z,20.08
2023-01-26T01:58:14.096Z,20.55
2023-01-26T02:00:43.943Z,23.73
2023-01-26T02:03:19.394Z,23.05
2023-01-26T02:05:57.547Z,21.08
2023-01-26T02:08:30.639Z,17.83
2023-01-26T02:11:02.253Z,18.25
2023-01-26T02:13:32.511Z,22.55
2023-01-26T02:16:02.619Z,19.52
2023-01-26T02:18:32.836Z,20.92
2023-01-26T02:21:04.726Z,18.98
2023-01-26T02:23:45.523Z,20.15
2023-01-26T02:26:19.287Z,22.80
2023-01-26T02:28:49.465Z,20.65
2023-01-26T02:31:19.508Z,21.60
2023-01-26T02:33:50.284Z,19.27
2023-01-26T02:39:04.530Z,21.17
2023-01-26T02:41:46.317Z,19.85
2023-01-26T02:44:17.562Z,21.23
2023-01-26T02:46:46.876Z,20.52
2023-01-26T02:49:31.837Z,22.08
2023-01-26T02:52:01.163Z,21.45
2023-01-26T02:54:42.948Z,18.58
2023-01-26T02:57:12.194Z,19.30
2023-01-26T02:59:41.866Z,21.48
2023-01-26T03:02:11.292Z,22.45
2023-01-26T03:04:40.595Z,20.55
2023-01-26T03:07:09.956Z,20.58
2023-01-26T03:09:39.432Z,21.20
2023-01-26T03:12:11.177Z,22.80
2023-01-26T03:14:40.476Z,20.77
2023-01-26T03:17:09.747Z,19.42
2023-01-26T03:19:52.239Z,21.30
2023-01-26T03:22:33.962Z,21.67
2023-01-26T03:25:15.771Z,23.30
2023-01-26T03:27:47.841Z,23.13
2023-01-26T03:30:19.296Z,22.52
2023-01-26T03:32:50.531Z,21.98
2023-01-26T03:35:23.120Z,21.27
2023-01-26T03:37:55.079Z,20.48
2023-01-26T03:41:00.014Z,21.70
2023-01-26T03:43:41.784Z,20.30
2023-01-26T03:46:24.433Z,19.70
2023-01-26T03:49:06.295Z,21.85
2023-01-26T03:51:48.145Z,19.25
2023-01-26T03:54:30.002Z,20.23
2023-01-26T03:56:59.334Z,17.80
2023-01-26T03:59:40.695Z,19.75
2023-01-26T04:02:26.440Z,20.60
2023-01-26T04:05:08.288Z,21.77
2023-01-26T04:07:50.951Z,21.17
2023-01-26T04:10:20.318Z,20.23
2023-01-26T04:13:02.269Z,20.95
2023-01-26T04:15:44.188Z,20.60
2023-01-26T04:18:26.028Z,20.10
2023-01-26T04:21:09.178Z,20.08
2023-01-26T04:23:39.773Z,22.52
2023-01-26T04:26:09.497Z,19.80
2023-01-26T04:28:38.917Z,20.70
2023-01-26T04:31:08.585Z,20.50
2023-01-26T04:33:39.971Z,19.83
2023-01-26T04:36:10.443Z,21.95
2023-01-26T04:38:43.741Z,20.13
2023-01-26T04:41:14.822Z,21.67
2023-01-26T04:43:48.970Z,21.20
2023-01-26T04:46:18.481Z,20.15
2023-01-26T04:48:48.472Z,20.30
2023-01-26T04:51:20.154Z,20.15
2023-01-26T04:53:50.353Z,19.30
2023-01-26T04:56:23.597Z,19.35
2023-01-26T04:58:54.205Z,21.13
2023-01-26T05:01:24.613Z,19.98
2023-01-26T05:03:54.769Z,20.17
2023-01-26T05:06:25.256Z,20.63
2023-01-26T05:08:54.523Z,22.92
2023-01-26T05:11:23.914Z,20.73
2023-01-26T05:14:19.231Z,19.58
2023-01-26T05:17:26.559Z,20.08
2023-01-26T05:20:19.971Z,17.70
2023-01-26T05:23:04.633Z,16.38
2023-01-26T05:25:44.276Z,17.33
2023-01-26T05:28:15.447Z,16.77
2023-01-26T05:30:45.277Z,16.30
2023-01-26T05:33:15.909Z,18.20
2023-01-26T05:35:45.726Z,17.40
2023-01-26T05:38:15.663Z,16.65
2023-01-26T05:40:44.928Z,18.55
2023-01-26T05:43:15.365Z,16.85
2023-01-26T05:45:54.654Z,15.95
2023-01-26T05:48:24.948Z,16.02
2023-01-26T05:50:55.374Z,17.33
2023-01-26T05:53:24.711Z,17.67
2023-01-26T05:55:54.293Z,16.80
2023-01-26T05:58:27.267Z,16.45
2023-01-26T06:00:56.888Z,15.23
2023-01-26T06:03:31.863Z,15.40
2023-01-26T06:06:01.177Z,15.25
2023-01-26T06:08:39.969Z,13.52
2023-01-26T06:11:31.643Z,15.32
2023-01-26T06:14:21.234Z,16.63
2023-01-26T06:16:52.502Z,14.85
2023-01-26T06:19:22.096Z,15.82
2023-01-26T06:21:59.235Z,15.15
2023-01-26T06:24:28.549Z,14.95
2023-01-26T06:26:58.019Z,13.40
2023-01-26T06:29:27.436Z,13.68
2023-01-26T06:31:57.395Z,15.23
2023-01-26T06:34:27.021Z,14.90
2023-01-26T06:36:56.503Z,14.30
2023-01-26T06:39:30.813Z,14.45
2023-01-26T06:42:02.505Z,14.25
2023-01-26T06:44:31.881Z,13.60
2023-01-26T06:47:01.171Z,13.90
2023-01-26T06:49:31.463Z,11.93
2023-01-26T06:52:19.433Z,13.98
2023-01-26T06:54:53.098Z,12.70
2023-01-26T06:57:24.847Z,13.50
2023-01-26T07:00:13.299Z,12.35
2023-01-26T07:03:17.960Z,13.10
2023-01-26T07:05:47.287Z,12.40
2023-01-26T07:08:16.752Z,10.88
2023-01-26T07:10:46.076Z,10.40
2023-01-26T07:13:15.784Z,11.85
2023-01-26T07:15:45.268Z,12.10
2023-01-26T07:18:14.553Z,10.63
2023-01-26T07:20:43.844Z,10.50
2023-01-26T07:23:13.417Z,9.18
2023-01-26T07:25:45.690Z,13.10
2023-01-26T07:28:17.989Z,10.68
2023-01-26T07:30:47.493Z,12.00
2023-01-26T07:33:16.865Z,12.60
2023-01-26T07:35:46.174Z,9.77
2023-01-26T07:38:15.414Z,9.48
2023-01-26T07:40:44.698Z,10.80
2023-01-26T07:43:15.691Z,10.88
2023-01-26T07:45:53.187Z,10.82
2023-01-26T07:48:23.241Z,10.63
2023-01-26T07:50:52.963Z,10.55
2023-01-26T07:53:23.068Z,11.00
2023-01-26T07:55:52.587Z,8.80
2023-01-26T07:58:21.886Z,9.45
2023-01-26T08:00:51.173Z,9.90
2023-01-26T08:03:20.499Z,8.85
2023-01-26T08:05:50.044Z,9.93
2023-01-26T08:08:19.465Z,7.60
2023-01-26T08:10:48.754Z,9.00
2023-01-26T08:13:29.938Z,10.32
2023-01-26T08:16:05.134Z,9.27
2023-01-26T08:18:34.569Z,8.43
2023-01-26T08:21:04.028Z,9.07
2023-01-26T08:23:33.549Z,8.95
2023-01-26T08:26:10.287Z,7.45
2023-01-26T08:28:39.708Z,8.18
2023-01-26T08:31:11.560Z,8.82
2023-01-26T08:33:41.657Z,8.88
2023-01-26T08:36:13.316Z,9.25
2023-01-26T08:38:42.799Z,8.77
2023-01-26T08:41:12.457Z,9.57
2023-01-26T08:43:41.864Z,9.57
2023-01-26T08:46:11.261Z,8.77
2023-01-26T08:48:40.604Z,9.63
2023-01-26T08:51:10.550Z,8.75
2023-01-26T08:53:40.088Z,9.65
2023-01-26T08:56:10.607Z,8.25
2023-01-26T08:58:40.183Z,9.07
2023-01-26T09:01:10.492Z,10.48
2023-01-26T09:03:40.439Z,9.63
2023-01-26T09:06:10.736Z,10.02
2023-01-26T09:08:40.051Z,10.52
2023-01-26T09:11:09.891Z,10.32
2023-01-26T09:13:40.234Z,11.75
2023-01-26T09:16:10.473Z,11.13
2023-01-26T09:18:39.784Z,10.77
2023-01-26T09:21:09.694Z,10.40
2023-01-26T09:23:39.232Z,9.25
2023-01-26T09:26:08.554Z,10.85
2023-01-26T09:28:37.880Z,9.60
2023-01-26T09:31:07.713Z,10.82
2023-01-26T09:33:37.247Z,9.65
2023-01-26T09:36:10.856Z,10.35
2023-01-26T09:38:41.943Z,10.70
2023-01-26T09:41:32.442Z,12.77
2023-01-26T09:44:06.653Z,10.00
2023-01-26T09:46:54.543Z,11.02
2023-01-26T09:49:26.736Z,10.88
2023-01-26T09:52:07.654Z,10.35
2023-01-26T09:54:40.335Z,11.93
2023-01-26T09:57:15.025Z,13.10
2023-01-26T09:59:51.661Z,12.35
2023-01-26T10:02:33.200Z,11.95
2023-01-26T10:05:06.497Z,12.40
2023-01-26T10:07:35.751Z,13.60
2023-01-26T10:10:05.352Z,11.30
2023-01-26T10:12:37.736Z,11.90
2023-01-26T10:17:39.544Z,12.20
2023-01-26T10:20:08.923Z,11.93
2023-01-26T10:22:48.732Z,12.57
2023-01-26T10:25:19.741Z,14.85
2023-01-26T10:27:49.270Z,11.05
2023-01-26T10:30:19.742Z,13.52
2023-01-26T10:32:50.596Z,13.60
2023-01-26T10:35:21.830Z,13.80
2023-01-26T10:37:52.806Z,11.80
2023-01-26T10:40:22.565Z,12.73
2023-01-26T10:43:00.475Z,13.57
2023-01-26T10:45:31.507Z,12.35
2023-01-26T10:48:07.979Z,15.85
2023-01-26T10:50:37.547Z,14.77
2023-01-26T10:53:08.297Z,12.68
2023-01-26T10:55:38.403Z,14.90
2023-01-26T10:58:07.761Z,14.13
2023-01-26T11:00:37.494Z,14.25
2023-01-26T11:03:22.419Z,14.77
2023-01-26T11:06:07.709Z,14.18
2023-01-26T11:08:38.214Z,15.70
2023-01-26T11:11:10.546Z,16.13
2023-01-26T11:13:40.205Z,16.27
2023-01-26T11:16:09.647Z,15.02
2023-01-26T11:18:53.496Z,16.95
2023-01-26T11:21:33.421Z,15.80
2023-01-26T11:24:17.603Z,15.98
2023-01-26T11:26:56.170Z,16.42
2023-01-26T11:29:34.864Z,16.33
2023-01-26T11:32:16.253Z,16.08
2023-01-26T11:35:04.401Z,16.73
2023-01-26T11:37:46.908Z,15.50
2023-01-26T11:40:19.185Z,15.18
2023-01-26T11:42:52.853Z,16.85
2023-01-26T11:45:30.882Z,17.63
2023-01-26T11:48:02.990Z,16.30
2023-01-26T11:50:38.868Z,16.67
2023-01-26T11:53:16.030Z,15.70
2023-01-26T11:55:48.444Z,16.58
2023-01-26T12:00:50.951Z,14.98
2023-01-26T12:03:30.084Z,16.17
2023-01-26T12:06:05.147Z,14.23
2023-01-26T12:08:41.011Z,13.85
2023-01-26T12:11:31.620Z,11.80
2023-01-26T12:14:00.920Z,13.55
2023-01-26T12:16:36.762Z,15.40
2023-01-26T12:19:12.268Z,13.10
2023-01-26T12:21:41.995Z,13.73
2023-01-26T12:24:36.030Z,14.52
2023-01-26T12:27:05.528Z,12.48
2023-01-26T12:29:47.573Z,12.73
2023-01-26T12:32:17.331Z,13.85
2023-01-26T12:34:46.652Z,13.05
2023-01-26T12:37:38.331Z,10.95
2023-01-26T12:40:09.268Z,12.48
2023-01-26T12:42:41.436Z,12.07
2023-01-26T12:45:17.523Z,10.23
2023-01-26T12:47:51.101Z,12.55
2023-01-26T12:50:20.380Z,11.75
2023-01-26T12:52:53.480Z,10.25
2023-01-26T12:55:25.306Z,10.98
2023-01-26T12:57:57.561Z,11.38
2023-01-26T13:00:28.975Z,10.68
2023-01-26T13:03:21.643Z,11.18
2023-01-26T13:05:58.832Z,11.23
2023-01-26T13:08:34.216Z,13.93
2023-01-26T13:11:04.763Z,11.88
2023-01-26T13:13:36.207Z,12.32
2023-01-26T13:16:22.081Z,11.40
2023-01-26T13:18:59.247Z,11.63
2023-01-26T13:21:48.828Z,12.20
2023-01-26T13:24:21.214Z,10.32
2023-01-26T13:26:52.193Z,11.27
2023-01-26T13:29:27.568Z,11.30
2023-01-26T13:31:59.855Z,11.40
2023-01-26T13:34:31.259Z,10.25
2023-01-26T13:37:07.807Z,9.25
2023-01-26T13:39:38.087Z,10.05
2023-01-26T13:42:17.816Z,9.88
2023-01-26T13:44:51.567Z,8.88
2023-01-26T13:47:23.626Z,9.57
2023-01-26T13:49:53.139Z,9.32
2023-01-26T13:52:22.382Z,9.15
2023-01-26T13:54:52.844Z,9.65
2023-01-26T13:57:29.592Z,10.48
2023-01-26T14:00:00.610Z,8.48
2023-01-26T14:02:34.659Z,8.93
2023-01-26T14:05:04.740Z,9.38
2023-01-26T14:07:35.863Z,9.57
2023-01-26T14:10:05.434Z,9.55
2023-01-26T14:12:38.891Z,7.78
2023-01-26T14:15:09.790Z,8.80
2023-01-26T14:17:49.366Z,8.38
2023-01-26T14:20:27.092Z,9.15
2023-01-26T14:23:13.029Z,9.48
2023-01-26T14:25:47.707Z,8.70
2023-01-26T14:28:18.289Z,10.18
2023-01-26T14:30:53.682Z,12.38
2023-01-26T14:33:23.271Z,10.75
2023-01-26T14:36:04.633Z,11.67
2023-01-26T14:38:43.996Z,10.80
2023-01-26T14:41:22.836Z,7.97
2023-01-26T14:43:56.501Z,8.57
2023-01-26T14:46:30.273Z,9.00
2023-01-26T14:51:29.686Z,5.55
2023-01-26T14:54:03.648Z,4.75
2023-01-26T14:56:38.105Z,6.07
2023-01-26T14:59:08.115Z,5.75
2023-01-26T15:01:37.645Z,5.32
2023-01-26T15:04:09.782Z,6.07
2023-01-26T15:06:39.079Z,5.18
2023-01-26T15:09:19.772Z,4.85
2023-01-26T15:12:07.159Z,5.55
2023-01-26T15:14:38.440Z,5.43
2023-01-26T15:17:08.067Z,5.57
2023-01-26T15:19:44.016Z,5.78
2023-01-26T15:22:22.359Z,4.78
2023-01-26T15:25:02.426Z,4.35
2023-01-26T15:27:38.358Z,4.53
2023-01-26T15:30:08.163Z,4.85
2023-01-26T15:32:42.065Z,4.07
2023-01-26T15:35:20.550Z,4.85
2023-01-26T15:37:49.883Z,4.20
2023-01-26T15:40:19.285Z,4.65
2023-01-26T15:42:48.503Z,4.00
2023-01-26T15:45:26.140Z,5.70
2023-01-26T15:47:55.442Z,5.07
2023-01-26T15:50:28.201Z,3.40
2023-01-26T15:52:57.692Z,4.20
2023-01-26T15:55:31.219Z,4.30
2023-01-26T15:58:00.907Z,4.15
2023-01-26T16:00:30.314Z,3.25
2023-01-26T16:02:59.560Z,3.05
2023-01-26T16:05:29.533Z,3.72
2023-01-26T16:07:58.762Z,3.17
2023-01-26T16:10:27.987Z,2.42
2023-01-26T16:12:57.381Z,2.85
2023-01-26T16:15:27.048Z,2.60
2023-01-26T16:17:56.461Z,2.80
2023-01-26T16:20:25.800Z,2.85
2023-01-26T16:22:55.100Z,3.40
2023-01-26T16:25:26.276Z,2.85
2023-01-26T16:27:55.943Z,2.90
2023-01-26T16:30:25.443Z,2.47
2023-01-26T16:32:55.186Z,2.72
2023-01-26T16:35:25.369Z,2.42
2023-01-26T16:37:54.591Z,2.40
2023-01-26T16:40:24.080Z,3.03
2023-01-26T16:42:54.928Z,2.42
2023-01-26T16:45:26.772Z,3.60
2023-01-26T16:47:57.264Z,2.83
2023-01-26T16:50:27.272Z,2.47
2023-01-26T16:52:56.488Z,2.20
2023-01-26T16:55:25.885Z,2.47
2023-01-26T16:57:55.139Z,2.35
2023-01-26T17:00:24.719Z,2.10
2023-01-26T17:02:55.313Z,2.10
2023-01-26T17:05:24.609Z,2.47
2023-01-26T17:07:53.968Z,2.00
2023-01-26T17:10:24.191Z,2.42
2023-01-26T17:12:53.537Z,2.60
2023-01-26T17:15:24.611Z,2.83
2023-01-26T17:17:54.499Z,2.50
2023-01-26T17:20:24.254Z,2.58
2023-01-26T17:22:53.941Z,2.70
2023-01-26T17:25:23.471Z,3.50
2023-01-26T17:27:53.838Z,2.88
2023-01-26T17:30:23.309Z,3.25
2023-01-26T17:32:52.656Z,3.28
2023-01-26T17:35:22.090Z,3.58
2023-01-26T17:37:52.138Z,2.97
2023-01-26T17:40:21.463Z,3.63
2023-01-26T17:42:51.062Z,3.17
2023-01-26T17:45:20.353Z,2.88
2023-01-26T17:47:49.543Z,3.90
2023-01-26T17:50:18.938Z,4.15
2023-01-26T17:52:48.178Z,5.05
2023-01-26T17:55:17.469Z,3.70
2023-01-26T17:57:46.709Z,3.88
2023-01-26T18:00:16.651Z,3.53
2023-01-26T18:02:45.966Z,4.28
2023-01-26T18:05:15.300Z,3.17
2023-01-26T18:07:44.753Z,3.95
2023-01-26T18:10:14.389Z,3.05
2023-01-26T18:12:43.716Z,2.30
2023-01-26T18:15:13.405Z,2.83
2023-01-26T18:17:42.870Z,2.50
2023-01-26T18:20:12.503Z,2.75
2023-01-26T18:22:41.742Z,1.90
2023-01-26T18:25:11.909Z,2.90
2023-01-26T18:27:41.371Z,2.15
2023-01-26T18:30:10.951Z,2.15
2023-01-26T18:32:40.172Z,1.80
2023-01-26T18:35:09.868Z,2.22
2023-01-26T18:37:39.463Z,2.13
2023-01-26T18:40:08.954Z,1.88
2023-01-26T18:42:38.158Z,2.53
2023-01-26T18:45:07.804Z,3.05
2023-01-26T18:47:37.257Z,2.35
2023-01-26T18:50:06.652Z,2.10
2023-01-26T18:52:35.964Z,2.38
2023-01-26T18:55:05.254Z,2.67
2023-01-26T18:57:34.489Z,4.05
2023-01-26T19:00:03.795Z,6.45
2023-01-26T19:02:38.937Z,3.58
2023-01-26T19:05:09.521Z,3.70
2023-01-26T19:07:39.780Z,3.13
2023-01-26T19:10:11.631Z,3.03
2023-01-26T19:12:41.276Z,4.05
2023-01-26T19:15:11.502Z,3.45
2023-01-26T19:17:44.886Z,3.03
2023-01-26T19:20:14.873Z,3.60
2023-01-26T19:22:44.140Z,3.42
2023-01-26T19:25:13.720Z,3.40
2023-01-26T19:27:43.068Z,2.45
2023-01-26T19:30:12.779Z,2.05
2023-01-26T19:33:02.066Z,2.28
2023-01-26T19:35:32.548Z,2.00
2023-01-26T19:38:01.821Z,2.63
2023-01-26T19:40:31.062Z,2.40
2023-01-26T19:43:00.370Z,2.00
2023-01-26T19:45:30.193Z,2.03
2023-01-26T19:47:59.444Z,2.83
2023-01-26T19:50:28.835Z,3.40
2023-01-26T19:52:58.144Z,2.60
2023-01-26T19:55:27.485Z,2.38
2023-01-26T19:57:56.754Z,2.30
2023-01-26T20:00:26.084Z,2.88
2023-01-26T20:02:55.415Z,2.60
2023-01-26T20:05:24.678Z,2.25
2023-01-26T20:07:53.933Z,2.42
2023-01-26T20:10:23.157Z,2.47
2023-01-26T20:12:53.195Z,2.08
2023-01-26T20:15:22.699Z,2.30
2023-01-26T20:17:52.020Z,2.65
2023-01-26T20:20:21.379Z,2.42
2023-01-26T20:22:50.677Z,5.05
2023-01-26T20:25:19.932Z,2.22
2023-01-26T20:27:49.212Z,2.58
2023-01-26T20:30:18.781Z,2.10
2023-01-26T20:32:48.103Z,2.20
2023-01-26T20:35:17.377Z,2.65
2023-01-26T20:37:46.602Z,2.42
2023-01-26T20:40:15.955Z,2.70
2023-01-26T20:42:45.428Z,3.50
2023-01-26T20:45:14.882Z,2.88
2023-01-26T20:47:44.708Z,3.78
2023-01-26T20:50:14.683Z,2.40
2023-01-26T20:52:44.699Z,2.45
2023-01-26T20:55:14.226Z,2.28
2023-01-26T20:57:43.525Z,2.35
2023-01-26T21:00:13.382Z,2.70
2023-01-26T21:02:42.915Z,2.05
2023-01-26T21:05:12.228Z,3.25
2023-01-26T21:07:41.516Z,2.95
2023-01-26T21:10:11.678Z,2.55
2023-01-26T21:12:41.213Z,3.17
2023-01-26T21:15:10.860Z,2.17
2023-01-26T21:17:40.162Z,2.67
2023-01-26T21:20:10.595Z,2.90
2023-01-26T21:22:40.043Z,1.80
2023-01-26T21:25:09.652Z,2.75
2023-01-26T21:27:38.958Z,2.95
2023-01-26T21:30:08.518Z,2.50
2023-01-26T21:32:37.786Z,3.30
2023-01-26T21:35:07.257Z,2.33
2023-01-26T21:37:36.478Z,2.80
2023-01-26T21:40:05.929Z,2.13
2023-01-26T21:42:36.775Z,2.75
2023-01-26T21:45:18.599Z,2.50
2023-01-26T21:48:07.790Z,2.97
2023-01-26T21:50:49.531Z,3.22
2023-01-26T21:53:18.819Z,2.45
2023-01-26T21:55:49.277Z,2.17
2023-01-26T21:58:30.963Z,2.22
2023-01-26T22:01:12.976Z,2.77
2023-01-26T22:03:42.382Z,3.22
2023-01-26T22:06:12.074Z,2.65
2023-01-26T22:08:41.690Z,2.25
2023-01-26T22:11:10.971Z,1.98
2023-01-26T22:13:40.197Z,2.10
2023-01-26T22:16:09.613Z,1.98
2023-01-26T22:18:38.943Z,2.70
2023-01-26T22:21:08.590Z,2.45
2023-01-26T22:23:39.613Z,2.00
2023-01-26T22:26:16.675Z,2.45
2023-01-26T22:28:50.375Z,2.20
2023-01-26T22:31:22.581Z,2.13
2023-01-26T22:33:52.786Z,2.40
2023-01-26T22:36:22.871Z,2.13
2023-01-26T22:38:52.746Z,2.03
2023-01-26T22:41:25.855Z,2.30
2023-01-26T22:43:56.767Z,2.10
2023-01-26T22:46:27.080Z,2.95
2023-01-26T22:48:57.188Z,2.28
2023-01-26T22:51:33.226Z,2.53
2023-01-26T22:54:02.706Z,2.85
2023-01-26T22:56:32.097Z,2.25
2023-01-26T22:59:02.369Z,2.30
2023-01-26T23:01:33.390Z,2.70
2023-01-26T23:04:03.804Z,2.20
2023-01-26T23:06:33.315Z,2.55
2023-01-26T23:09:04.684Z,3.05
2023-01-26T23:11:34.259Z,2.60
2023-01-26T23:14:03.609Z,2.97
2023-01-26T23:16:33.059Z,4.05
2023-01-26T23:19:02.549Z,2.97
2023-01-26T23:21:32.128Z,3.35
2023-01-26T23:24:01.556Z,2.78
2023-01-26T23:26:30.883Z,4.13
2023-01-26T23:29:00.134Z,2.78
2023-01-26T23:31:29.417Z,3.03
2023-01-26T23:33:58.737Z,3.03
2023-01-26T23:36:28.079Z,3.75
2023-01-26T23:38:57.322Z,4.00
2023-01-26T23:41:26.605Z,3.40
2023-01-26T23:43:55.976Z,3.47
2023-01-26T23:46:25.274Z,3.13
2023-01-26T23:48:54.722Z,3.03
2023-01-26T23:51:24.065Z,3.10
2023-01-26T23:53:53.323Z,2.58
2023-01-26T23:56:22.683Z,3.70
2023-01-26T23:58:52.082Z,3.50
